sensor_id;sensor_type;location;lat;lon;timestamp;temperature;humidity
25200;DHT22;33094;48.782;9.162;2024-03-23T00:54:47;11.30;99.90
25200;DHT22;33094;48.782;9.162;2024-03-23T00:57:13;11.20;99.90
25200;DHT22;33094;48.782;9.162;2024-03-23T00:59:38;11.20;99.90
25200;DHT22;33094;48.782;9.162;2024-03-23T01:02:04;11.30;99.90
25200;DHT22;33094;48.782;9.162;2024-03-23T01:04:30;11.30;99.90
25200;DHT22;33094;48.782;9.162;2024-03-23T01:06:55;11.40;99.90
25200;DHT22;33094;48.782;9.162;2024-03-23T01:09:21;11.40;99.90
25200;DHT22;33094;48.782;9.162;2024-03-23T01:11:48;11.50;99.90
25200;DHT22;33094;48.782;9.162;2024-03-23T01:14:14;11.60;99.90
25200;DHT22;33094;48.782;9.162;2024-03-23T01:16:39;11.60;99.90
25200;DHT22;33094;48.782;9.162;2024-03-23T01:19:05;11.50;99.90
25200;DHT22;33094;48.782;9.162;2024-03-23T01:21:31;12.30;99.90
25200;DHT22;33094;48.782;9.162;2024-03-23T01:23:57;11.50;99.90
25200;DHT22;33094;48.782;9.162;2024-03-23T01:26:22;11.40;99.90
25200;DHT22;33094;48.782;9.162;2024-03-23T01:28:48;11.50;99.90
25200;DHT22;33094;48.782;9.162;2024-03-23T01:31:16;11.50;99.90
25200;DHT22;33094;48.782;9.162;2024-03-23T01:33:45;11.70;99.90
25200;DHT22;33094;48.782;9.162;2024-03-23T01:36:10;11.80;99.90
25200;DHT22;33094;48.782;9.162;2024-03-23T01:38:36;11.80;99.90
25200;DHT22;33094;48.782;9.162;2024-03-23T01:41:02;12.00;99.90
25200;DHT22;33094;48.782;9.162;2024-03-23T01:43:27;11.80;99.90
25200;DHT22;33094;48.782;9.162;2024-03-23T01:45:53;11.90;99.90
25200;DHT22;33094;48.782;9.162;2024-03-23T01:48:20;11.90;99.90
25200;DHT22;33094;48.782;9.162;2024-03-23T01:50:46;11.90;99.90
25200;DHT22;33094;48.782;9.162;2024-03-23T01:53:12;11.90;99.90
25200;DHT22;33094;48.782;9.162;2024-03-23T01:55:39;11.80;99.90
25200;DHT22;33094;48.782;9.162;2024-03-23T01:58:04;12.30;99.90
25200;DHT22;33094;48.782;9.162;2024-03-23T02:00:30;11.90;99.90
25200;DHT22;33094;48.782;9.162;2024-03-23T02:02:55;12.50;99.90
25200;DHT22;33094;48.782;9.162;2024-03-23T02:05:22;12.10;99.90
25200;DHT22;33094;48.782;9.162;2024-03-23T02:07:50;12.10;99.90
25200;DHT22;33094;48.782;9.162;2024-03-23T02:10:16;12.10;99.90
25200;DHT22;33094;48.782;9.162;2024-03-23T02:12:41;12.20;99.90
25200;DHT22;33094;48.782;9.162;2024-03-23T02:15:07;12.30;99.90
25200;DHT22;33094;48.782;9.162;2024-03-23T02:17:35;12.30;99.90
25200;DHT22;33094;48.782;9.162;2024-03-23T02:20:03;12.30;99.90
25200;DHT22;33094;48.782;9.162;2024-03-23T02:22:40;12.10;99.90
25200;DHT22;33094;48.782;9.162;2024-03-23T02:25:17;12.60;99.90
25200;DHT22;33094;48.782;9.162;2024-03-23T02:27:43;12.20;99.90
25200;DHT22;33094;48.782;9.162;2024-03-23T02:30:08;12.10;99.90
25200;DHT22;33094;48.782;9.162;2024-03-23T02:32:34;12.10;99.90
25200;DHT22;33094;48.782;9.162;2024-03-23T02:35:00;12.30;99.90
25200;DHT22;33094;48.782;9.162;2024-03-23T02:37:25;12.10;99.90
25200;DHT22;33094;48.782;9.162;2024-03-23T02:39:51;12.20;99.90
25200;DHT22;33094;48.782;9.162;2024-03-23T02:42:17;12.10;99.90
25200;DHT22;33094;48.782;9.162;2024-03-23T02:44:44;12.20;99.90
25200;DHT22;33094;48.782;9.162;2024-03-23T02:47:10;12.10;99.90
25200;DHT22;33094;48.782;9.162;2024-03-23T02:49:35;12.10;99.90
25200;DHT22;33094;48.782;9.162;2024-03-23T02:52:01;12.10;99.90
25200;DHT22;33094;48.782;9.162;2024-03-23T02:54:27;12.20;99.90
25200;DHT22;33094;48.782;9.162;2024-03-23T02:56:52;12.20;99.90
25200;DHT22;33094;48.782;9.162;2024-03-23T02:59:18;12.80;99.90
25200;DHT22;33094;48.782;9.162;2024-03-23T03:01:43;13.50;99.90
25200;DHT22;33094;48.782;9.162;2024-03-23T03:04:09;12.70;99.90
25200;DHT22;33094;48.782;9.162;2024-03-23T03:06:34;12.60;99.90
25200;DHT22;33094;48.782;9.162;2024-03-23T03:09:00;12.80;99.90
25200;DHT22;33094;48.782;9.162;2024-03-23T03:11:26;12.70;99.90
25200;DHT22;33094;48.782;9.162;2024-03-23T03:13:52;12.70;99.90
25200;DHT22;33094;48.782;9.162;2024-03-23T03:16:18;12.70;99.90
25200;DHT22;33094;48.782;9.162;2024-03-23T03:18:43;12.70;99.90
25200;DHT22;33094;48.782;9.162;2024-03-23T03:21:11;12.70;99.90
25200;DHT22;33094;48.782;9.162;2024-03-23T03:23:38;12.60;99.90
25200;DHT22;33094;48.782;9.162;2024-03-23T03:26:05;12.50;99.90
25200;DHT22;33094;48.782;9.162;2024-03-23T03:28:31;12.60;99.90
25200;DHT22;33094;48.782;9.162;2024-03-23T03:31:01;13.20;99.90
25200;DHT22;33094;48.782;9.162;2024-03-23T03:33:28;12.60;99.90
25200;DHT22;33094;48.782;9.162;2024-03-23T03:35:54;13.20;99.90
25200;DHT22;33094;48.782;9.162;2024-03-23T03:38:22;12.60;99.90
25200;DHT22;33094;48.782;9.162;2024-03-23T03:40:47;12.60;99.90
25200;DHT22;33094;48.782;9.162;2024-03-23T03:43:13;12.70;99.90
25200;DHT22;33094;48.782;9.162;2024-03-23T03:45:39;12.50;99.90
25200;DHT22;33094;48.782;9.162;2024-03-23T03:48:05;13.20;99.90
25200;DHT22;33094;48.782;9.162;2024-03-23T03:50:31;12.50;99.90
25200;DHT22;33094;48.782;9.162;2024-03-23T03:52:57;12.60;99.90
25200;DHT22;33094;48.782;9.162;2024-03-23T03:55:22;13.60;99.90
25200;DHT22;33094;48.782;9.162;2024-03-23T03:57:48;12.40;99.90
25200;DHT22;33094;48.782;9.162;2024-03-23T04:00:14;12.40;99.90
25200;DHT22;33094;48.782;9.162;2024-03-23T04:02:40;12.40;99.90
25200;DHT22;33094;48.782;9.162;2024-03-23T04:05:06;13.30;99.90
25200;DHT22;33094;48.782;9.162;2024-03-23T04:07:35;12.40;99.90
25200;DHT22;33094;48.782;9.162;2024-03-23T04:10:00;12.70;99.90
25200;DHT22;33094;48.782;9.162;2024-03-23T04:12:26;13.00;99.90
25200;DHT22;33094;48.782;9.162;2024-03-23T04:14:51;13.30;99.90
25200;DHT22;33094;48.782;9.162;2024-03-23T04:17:17;14.10;99.90
25200;DHT22;33094;48.782;9.162;2024-03-23T04:19:44;13.70;99.90
25200;DHT22;33094;48.782;9.162;2024-03-23T04:22:09;14.00;99.90
25200;DHT22;33094;48.782;9.162;2024-03-23T04:24:36;14.00;99.90
25200;DHT22;33094;48.782;9.162;2024-03-23T04:27:02;12.50;99.90
25200;DHT22;33094;48.782;9.162;2024-03-23T04:29:28;12.50;99.90
25200;DHT22;33094;48.782;9.162;2024-03-23T04:31:54;12.40;99.90
25200;DHT22;33094;48.782;9.162;2024-03-23T04:34:20;13.80;99.90
25200;DHT22;33094;48.782;9.162;2024-03-23T04:36:46;12.60;99.90
25200;DHT22;33094;48.782;9.162;2024-03-23T04:39:11;12.70;99.90
25200;DHT22;33094;48.782;9.162;2024-03-23T04:41:37;12.80;99.90
25200;DHT22;33094;48.782;9.162;2024-03-23T04:44:03;12.70;99.90
25200;DHT22;33094;48.782;9.162;2024-03-23T04:46:29;12.50;99.90
25200;DHT22;33094;48.782;9.162;2024-03-23T04:48:54;13.50;99.90
25200;DHT22;33094;48.782;9.162;2024-03-23T04:51:23;12.50;99.90
25200;DHT22;33094;48.782;9.162;2024-03-23T04:53:48;12.40;99.90
25200;DHT22;33094;48.782;9.162;2024-03-23T04:56:15;12.60;99.90
25200;DHT22;33094;48.782;9.162;2024-03-23T04:58:41;12.30;99.90
25200;DHT22;33094;48.782;9.162;2024-03-23T05:01:06;13.90;99.90
25200;DHT22;33094;48.782;9.162;2024-03-23T05:03:32;12.30;99.90
25200;DHT22;33094;48.782;9.162;2024-03-23T05:05:57;12.20;99.90
25200;DHT22;33094;48.782;9.162;2024-03-23T05:08:24;13.40;99.90
25200;DHT22;33094;48.782;9.162;2024-03-23T05:10:49;11.70;99.90
25200;DHT22;33094;48.782;9.162;2024-03-23T05:13:15;12.60;99.90
25200;DHT22;33094;48.782;9.162;2024-03-23T05:15:40;12.70;99.90
25200;DHT22;33094;48.782;9.162;2024-03-23T05:18:06;12.10;99.90
25200;DHT22;33094;48.782;9.162;2024-03-23T05:20:32;12.40;99.90
25200;DHT22;33094;48.782;9.162;2024-03-23T05:22:59;11.90;99.90
25200;DHT22;33094;48.782;9.162;2024-03-23T05:25:25;11.30;99.90
25200;DHT22;33094;48.782;9.162;2024-03-23T05:27:51;12.00;99.90
25200;DHT22;33094;48.782;9.162;2024-03-23T05:30:16;12.40;99.90
25200;DHT22;33094;48.782;9.162;2024-03-23T05:32:42;12.50;99.90
25200;DHT22;33094;48.782;9.162;2024-03-23T05:35:09;11.10;99.90
25200;DHT22;33094;48.782;9.162;2024-03-23T05:37:35;11.10;99.90
25200;DHT22;33094;48.782;9.162;2024-03-23T05:40:01;12.20;99.90
25200;DHT22;33094;48.782;9.162;2024-03-23T05:42:26;11.20;99.90
25200;DHT22;33094;48.782;9.162;2024-03-23T05:44:53;12.30;99.90
25200;DHT22;33094;48.782;9.162;2024-03-23T05:47:18;10.70;99.90
25200;DHT22;33094;48.782;9.162;2024-03-23T05:49:45;12.40;99.90
25200;DHT22;33094;48.782;9.162;2024-03-23T05:52:11;11.20;99.90
25200;DHT22;33094;48.782;9.162;2024-03-23T05:54:37;12.70;99.90
25200;DHT22;33094;48.782;9.162;2024-03-23T05:57:03;11.20;99.90
25200;DHT22;33094;48.782;9.162;2024-03-23T05:59:29;10.70;99.90
25200;DHT22;33094;48.782;9.162;2024-03-23T06:01:55;10.60;99.90
25200;DHT22;33094;48.782;9.162;2024-03-23T06:04:20;11.90;99.90
25200;DHT22;33094;48.782;9.162;2024-03-23T06:06:48;10.40;99.90
25200;DHT22;33094;48.782;9.162;2024-03-23T06:09:13;10.20;99.90
25200;DHT22;33094;48.782;9.162;2024-03-23T06:11:39;11.40;99.90
25200;DHT22;33094;48.782;9.162;2024-03-23T06:14:05;10.40;99.90
25200;DHT22;33094;48.782;9.162;2024-03-23T06:16:32;10.10;99.90
25200;DHT22;33094;48.782;9.162;2024-03-23T06:18:58;10.20;99.90
25200;DHT22;33094;48.782;9.162;2024-03-23T06:21:24;10.20;99.90
25200;DHT22;33094;48.782;9.162;2024-03-23T06:23:53;11.50;99.90
25200;DHT22;33094;48.782;9.162;2024-03-23T06:26:22;10.30;99.90
25200;DHT22;33094;48.782;9.162;2024-03-23T06:28:54;10.20;99.90
25200;DHT22;33094;48.782;9.162;2024-03-23T06:31:19;10.20;99.90
25200;DHT22;33094;48.782;9.162;2024-03-23T06:33:45;11.10;99.90
25200;DHT22;33094;48.782;9.162;2024-03-23T06:36:13;10.20;99.90
25200;DHT22;33094;48.782;9.162;2024-03-23T06:38:39;11.40;99.90
25200;DHT22;33094;48.782;9.162;2024-03-23T06:41:05;10.20;99.90
25200;DHT22;33094;48.782;9.162;2024-03-23T06:43:34;11.40;99.90
25200;DHT22;33094;48.782;9.162;2024-03-23T06:45:59;10.20;99.90
25200;DHT22;33094;48.782;9.162;2024-03-23T06:48:25;10.20;99.90
25200;DHT22;33094;48.782;9.162;2024-03-23T06:50:56;10.80;99.90
25200;DHT22;33094;48.782;9.162;2024-03-23T06:53:22;11.60;99.90
25200;DHT22;33094;48.782;9.162;2024-03-23T06:55:53;10.10;99.90
25200;DHT22;33094;48.782;9.162;2024-03-23T06:58:23;10.10;99.90
25200;DHT22;33094;48.782;9.162;2024-03-23T07:00:50;9.90;99.90
25200;DHT22;33094;48.782;9.162;2024-03-23T07:03:20;10.80;99.90
25200;DHT22;33094;48.782;9.162;2024-03-23T07:05:46;9.70;99.90
25200;DHT22;33094;48.782;9.162;2024-03-23T07:08:15;9.90;99.90
25200;DHT22;33094;48.782;9.162;2024-03-23T07:10:46;10.10;99.90
25200;DHT22;33094;48.782;9.162;2024-03-23T07:13:12;10.70;99.90
25200;DHT22;33094;48.782;9.162;2024-03-23T07:15:37;10.00;99.90
25200;DHT22;33094;48.782;9.162;2024-03-23T07:18:03;10.90;99.90
25200;DHT22;33094;48.782;9.162;2024-03-23T07:20:29;10.00;99.90
25200;DHT22;33094;48.782;9.162;2024-03-23T07:22:57;10.70;99.90
25200;DHT22;33094;48.782;9.162;2024-03-23T07:25:25;9.80;99.90
25200;DHT22;33094;48.782;9.162;2024-03-23T07:27:53;10.90;99.90
25200;DHT22;33094;48.782;9.162;2024-03-23T07:30:19;11.40;99.90
25200;DHT22;33094;48.782;9.162;2024-03-23T07:32:45;10.00;99.90
25200;DHT22;33094;48.782;9.162;2024-03-23T07:35:10;10.40;99.90
25200;DHT22;33094;48.782;9.162;2024-03-23T07:37:36;10.40;99.90
25200;DHT22;33094;48.782;9.162;2024-03-23T07:40:02;10.90;99.90
25200;DHT22;33094;48.782;9.162;2024-03-23T07:42:28;10.10;99.90
25200;DHT22;33094;48.782;9.162;2024-03-23T07:44:54;11.10;99.90
25200;DHT22;33094;48.782;9.162;2024-03-23T07:47:22;10.10;99.90
25200;DHT22;33094;48.782;9.162;2024-03-23T07:49:48;11.50;99.90
25200;DHT22;33094;48.782;9.162;2024-03-23T07:52:13;10.60;99.90
25200;DHT22;33094;48.782;9.162;2024-03-23T07:54:39;11.30;99.90
25200;DHT22;33094;48.782;9.162;2024-03-23T07:57:05;9.70;99.90
25200;DHT22;33094;48.782;9.162;2024-03-23T07:59:31;10.50;99.90
25200;DHT22;33094;48.782;9.162;2024-03-23T08:01:59;9.30;99.90
25200;DHT22;33094;48.782;9.162;2024-03-23T08:04:25;9.10;99.90
25200;DHT22;33094;48.782;9.162;2024-03-23T08:06:50;8.70;99.90
25200;DHT22;33094;48.782;9.162;2024-03-23T08:09:16;9.90;99.90
25200;DHT22;33094;48.782;9.162;2024-03-23T08:11:42;9.80;99.90
25200;DHT22;33094;48.782;9.162;2024-03-23T08:14:10;9.10;99.90
25200;DHT22;33094;48.782;9.162;2024-03-23T08:16:36;9.50;99.90
25200;DHT22;33094;48.782;9.162;2024-03-23T08:19:01;8.80;99.90
25200;DHT22;33094;48.782;9.162;2024-03-23T08:21:29;9.80;99.90
25200;DHT22;33094;48.782;9.162;2024-03-23T08:23:54;8.80;99.90
25200;DHT22;33094;48.782;9.162;2024-03-23T08:26:20;9.30;99.90
25200;DHT22;33094;48.782;9.162;2024-03-23T08:28:45;9.10;99.90
25200;DHT22;33094;48.782;9.162;2024-03-23T08:31:12;9.60;99.90
25200;DHT22;33094;48.782;9.162;2024-03-23T08:33:38;9.90;99.90
25200;DHT22;33094;48.782;9.162;2024-03-23T08:36:05;9.00;99.90
25200;DHT22;33094;48.782;9.162;2024-03-23T08:38:31;9.30;99.90
25200;DHT22;33094;48.782;9.162;2024-03-23T08:43:23;9.10;99.90
25200;DHT22;33094;48.782;9.162;2024-03-23T08:45:49;9.10;99.90
25200;DHT22;33094;48.782;9.162;2024-03-23T08:48:15;8.90;99.90
25200;DHT22;33094;48.782;9.162;2024-03-23T08:50:40;9.00;99.90
25200;DHT22;33094;48.782;9.162;2024-03-23T08:53:06;9.20;99.90
25200;DHT22;33094;48.782;9.162;2024-03-23T08:55:31;9.30;99.90
25200;DHT22;33094;48.782;9.162;2024-03-23T08:57:57;9.50;99.90
25200;DHT22;33094;48.782;9.162;2024-03-23T09:00:22;10.50;99.90
25200;DHT22;33094;48.782;9.162;2024-03-23T09:02:48;10.50;99.90
25200;DHT22;33094;48.782;9.162;2024-03-23T09:05:14;10.10;99.90
25200;DHT22;33094;48.782;9.162;2024-03-23T09:07:39;9.80;99.90
25200;DHT22;33094;48.782;9.162;2024-03-23T09:10:06;9.50;99.90
25200;DHT22;33094;48.782;9.162;2024-03-23T09:12:31;9.40;99.90
25200;DHT22;33094;48.782;9.162;2024-03-23T09:14:57;9.40;99.90
25200;DHT22;33094;48.782;9.162;2024-03-23T09:17:23;10.40;99.90
25200;DHT22;33094;48.782;9.162;2024-03-23T09:19:48;10.10;99.90
25200;DHT22;33094;48.782;9.162;2024-03-23T09:22:17;10.10;99.90
25200;DHT22;33094;48.782;9.162;2024-03-23T09:24:42;10.80;99.90
25200;DHT22;33094;48.782;9.162;2024-03-23T09:27:08;10.10;99.90
25200;DHT22;33094;48.782;9.162;2024-03-23T09:29:33;9.60;99.90
25200;DHT22;33094;48.782;9.162;2024-03-23T09:31:59;9.40;99.90
25200;DHT22;33094;48.782;9.162;2024-03-23T09:34:25;10.50;99.90
25200;DHT22;33094;48.782;9.162;2024-03-23T09:36:51;11.30;99.90
25200;DHT22;33094;48.782;9.162;2024-03-23T09:39:18;9.80;99.90
25200;DHT22;33094;48.782;9.162;2024-03-23T09:41:43;10.60;99.90
25200;DHT22;33094;48.782;9.162;2024-03-23T09:44:09;11.70;99.90
25200;DHT22;33094;48.782;9.162;2024-03-23T09:46:35;12.10;99.90
25200;DHT22;33094;48.782;9.162;2024-03-23T09:49:02;10.70;99.90
25200;DHT22;33094;48.782;9.162;2024-03-23T09:51:30;11.60;99.80
25200;DHT22;33094;48.782;9.162;2024-03-23T09:53:56;10.10;99.90
25200;DHT22;33094;48.782;9.162;2024-03-23T09:56:22;10.10;99.40
25200;DHT22;33094;48.782;9.162;2024-03-23T09:58:49;11.50;99.80
25200;DHT22;33094;48.782;9.162;2024-03-23T10:01:15;11.60;99.30
25200;DHT22;33094;48.782;9.162;2024-03-23T10:03:46;8.70;98.40
25200;DHT22;33094;48.782;9.162;2024-03-23T10:06:12;10.00;98.20
25200;DHT22;33094;48.782;9.162;2024-03-23T10:08:41;10.00;97.90
25200;DHT22;33094;48.782;9.162;2024-03-23T10:11:13;11.70;97.50
25200;DHT22;33094;48.782;9.162;2024-03-23T10:13:42;11.60;97.20
25200;DHT22;33094;48.782;9.162;2024-03-23T10:16:08;11.30;96.80
25200;DHT22;33094;48.782;9.162;2024-03-23T10:18:39;11.30;96.00
